createdAt,value
2017-08-02T00:00:12.689Z,20.43
2017-08-02T00:00:38.800Z,20.39
2017-08-02T00:01:04.932Z,20.36
2017-08-02T00:01:31.092Z,20.32
2017-08-02T00:01:57.224Z,20.28
2017-08-02T00:02:23.328Z,20.34
2017-08-02T00:02:49.521Z,20.41
2017-08-02T00:03:15.681Z,20.34
2017-08-02T00:03:41.815Z,20.4
2017-08-02T00:04:08.004Z,20.4
2017-08-02T00:04:34.137Z,20.44
2017-08-02T00:05:00.296Z,20.41
2017-08-02T00:05:26.432Z,20.43
2017-08-02T00:05:52.566Z,20.51
2017-08-02T00:06:18.699Z,20.43
2017-08-02T00:06:44.888Z,20.31
2017-08-02T00:07:11.048Z,20.48
2017-08-02T00:07:37.211Z,20.4
2017-08-02T00:08:03.315Z,20.4
2017-08-02T00:08:29.476Z,20.43
2017-08-02T00:08:55.634Z,20.44
2017-08-02T00:09:21.768Z,20.37
2017-08-02T00:09:47.932Z,20.47
2017-08-02T00:10:14.143Z,20.44
2017-08-02T00:10:40.306Z,20.41
2017-08-02T00:11:06.442Z,20.32
2017-08-02T00:11:32.631Z,20.34
2017-08-02T00:11:58.766Z,20.31
2017-08-02T00:12:24.925Z,20.32
2017-08-02T00:12:51.059Z,20.26
2017-08-02T00:13:17.220Z,20.31
2017-08-02T00:13:43.352Z,20.32
2017-08-02T00:14:09.460Z,20.43
2017-08-02T00:14:35.594Z,20.4
2017-08-02T00:15:01.756Z,20.43
2017-08-02T00:15:27.973Z,20.43
2017-08-02T00:15:54.162Z,20.29
2017-08-02T00:16:20.322Z,20.31
2017-08-02T00:16:46.512Z,20.4
2017-08-02T00:17:12.675Z,20.47
2017-08-02T00:17:38.836Z,20.44
2017-08-02T00:18:04.999Z,20.44
2017-08-02T00:18:31.214Z,20.44
2017-08-02T00:18:57.318Z,20.44
2017-08-02T00:19:23.506Z,20.44
2017-08-02T00:19:49.665Z,20.4
2017-08-02T00:20:15.798Z,20.39
2017-08-02T00:20:41.986Z,20.31
2017-08-02T00:21:08.148Z,20.41
2017-08-02T00:21:34.308Z,20.26
2017-08-02T00:22:00.439Z,20.48
2017-08-02T00:22:26.571Z,20.29
2017-08-02T00:22:52.704Z,20.41
2017-08-02T00:23:18.809Z,20.47
2017-08-02T00:23:44.940Z,20.48
2017-08-02T00:24:11.102Z,20.36
2017-08-02T00:24:37.261Z,20.43
2017-08-02T00:25:03.423Z,20.47
2017-08-02T00:25:29.581Z,20.43
2017-08-02T00:25:55.715Z,20.44
2017-08-02T00:26:21.904Z,20.34
2017-08-02T00:26:48.066Z,20.29
2017-08-02T00:27:14.226Z,20.36
2017-08-02T00:27:40.331Z,20.31
2017-08-02T00:28:06.464Z,20.29
2017-08-02T00:28:32.628Z,20.21
2017-08-02T00:28:58.788Z,20.24
2017-08-02T00:29:24.924Z,20.26
2017-08-02T00:29:51.082Z,20.28
2017-08-02T00:30:17.242Z,20.19
2017-08-02T00:30:43.502Z,20.21
2017-08-02T00:31:09.658Z,20.16
2017-08-02T00:31:35.847Z,20.18
2017-08-02T00:32:01.953Z,20.14
2017-08-02T00:32:28.088Z,20.16
2017-08-02T00:32:54.192Z,20.16
2017-08-02T00:33:20.325Z,20.18
2017-08-02T00:33:46.432Z,20.11
2017-08-02T00:34:12.594Z,20.26
2017-08-02T00:34:38.757Z,20.24
2017-08-02T00:35:04.892Z,20.31
2017-08-02T00:35:31.052Z,20.34
2017-08-02T00:35:57.213Z,20.37
2017-08-02T00:36:23.402Z,20.44
2017-08-02T00:36:49.560Z,20.36
2017-08-02T00:37:15.691Z,20.39
2017-08-02T00:37:41.851Z,20.41
2017-08-02T00:38:08.013Z,20.48
2017-08-02T00:38:34.201Z,20.43
2017-08-02T00:39:00.365Z,20.39
2017-08-02T00:39:26.525Z,20.31
2017-08-02T00:39:52.657Z,20.32
2017-08-02T00:40:18.761Z,20.29
2017-08-02T00:40:44.922Z,20.28
2017-08-02T00:41:11.053Z,20.31
2017-08-02T00:41:37.185Z,20.32
2017-08-02T00:42:03.286Z,20.34
2017-08-02T00:42:29.394Z,20.31
2017-08-02T00:42:55.556Z,20.34
2017-08-02T00:43:21.689Z,20.26
2017-08-02T00:43:47.851Z,20.31
2017-08-02T00:44:14.068Z,20.28
2017-08-02T00:44:40.176Z,20.13
2017-08-02T00:45:06.309Z,20.18
2017-08-02T00:45:32.442Z,20.16
2017-08-02T00:45:58.606Z,20.14
2017-08-02T00:46:24.741Z,20.18
2017-08-02T00:46:50.846Z,20.14
2017-08-02T00:47:16.978Z,20.11
2017-08-02T00:47:43.112Z,20.14
2017-08-02T00:48:09.244Z,20.16
2017-08-02T00:48:35.430Z,20.13
2017-08-02T00:49:01.592Z,20.13
2017-08-02T00:49:27.754Z,20.14
2017-08-02T00:49:53.888Z,20.14
2017-08-02T00:50:20.020Z,20.09
2017-08-02T00:50:46.125Z,19.92
2017-08-02T00:51:12.260Z,20.06
2017-08-02T00:51:38.392Z,19.95
2017-08-02T00:52:04.527Z,19.92
2017-08-02T00:52:30.687Z,19.88
2017-08-02T00:52:56.849Z,19.77
2017-08-02T00:53:23.036Z,19.76
2017-08-02T00:53:49.168Z,19.94
2017-08-02T00:54:15.274Z,19.88
2017-08-02T00:54:41.438Z,19.84
2017-08-02T00:55:07.594Z,19.91
2017-08-02T00:55:33.781Z,19.95
2017-08-02T00:55:59.913Z,19.89
2017-08-02T00:56:26.102Z,19.94
2017-08-02T00:56:52.291Z,20.03
2017-08-02T00:57:18.424Z,19.92
2017-08-02T00:57:44.556Z,20.03
2017-08-02T00:58:10.716Z,20.04
2017-08-02T00:58:36.848Z,20.07
2017-08-02T00:59:03.084Z,20.11
2017-08-02T00:59:29.190Z,20.07
2017-08-02T00:59:55.379Z,20.13
2017-08-02T01:00:21.540Z,20.07
2017-08-02T01:00:47.731Z,19.92
2017-08-02T01:01:13.894Z,20.02
2017-08-02T01:01:40.112Z,20.03
2017-08-02T01:02:06.244Z,20.04
2017-08-02T01:02:32.433Z,20.07
2017-08-02T01:02:58.566Z,20.14
2017-08-02T01:03:24.672Z,20.11
2017-08-02T01:03:50.779Z,20.1
2017-08-02T01:04:16.939Z,20.13
2017-08-02T01:04:43.101Z,20.18
2017-08-02T01:05:09.262Z,20.14
2017-08-02T01:05:35.451Z,20.14
2017-08-02T01:06:01.612Z,20.14
2017-08-02T01:06:27.746Z,20.13
2017-08-02T01:06:53.935Z,20.13
2017-08-02T01:07:20.093Z,20.16
2017-08-02T01:07:46.201Z,20.11
2017-08-02T01:08:12.332Z,20.09
2017-08-02T01:08:38.435Z,20.09
2017-08-02T01:09:04.565Z,20.06
2017-08-02T01:09:30.724Z,20
2017-08-02T01:09:56.912Z,20.02
2017-08-02T01:10:23.045Z,20.03
2017-08-02T01:10:49.151Z,19.99
2017-08-02T01:11:15.314Z,20.03
2017-08-02T01:11:41.502Z,19.95
2017-08-02T01:12:07.664Z,19.91
2017-08-02T01:12:33.769Z,19.92
2017-08-02T01:12:59.949Z,19.91
2017-08-02T01:13:26.089Z,20.02
2017-08-02T01:13:52.249Z,19.86
2017-08-02T01:14:18.384Z,19.89
2017-08-02T01:14:44.516Z,19.96
2017-08-02T01:15:10.730Z,19.86
2017-08-02T01:15:36.893Z,19.86
2017-08-02T01:16:03.052Z,19.85
2017-08-02T01:16:29.270Z,19.77
2017-08-02T01:16:55.433Z,19.85
2017-08-02T01:17:21.593Z,19.89
2017-08-02T01:17:47.810Z,19.81
2017-08-02T01:18:13.970Z,19.88
2017-08-02T01:18:40.130Z,19.79
2017-08-02T01:19:06.261Z,19.81
2017-08-02T01:19:32.453Z,19.79
2017-08-02T01:19:58.609Z,19.84
2017-08-02T01:20:24.741Z,19.81
2017-08-02T01:20:50.846Z,19.69
2017-08-02T01:21:17.032Z,19.76
2017-08-02T01:21:43.166Z,19.67
2017-08-02T01:22:09.299Z,19.79
2017-08-02T01:22:35.459Z,19.79
2017-08-02T01:23:01.617Z,19.69
2017-08-02T01:23:27.722Z,19.77
2017-08-02T01:23:53.828Z,19.7
2017-08-02T01:24:19.937Z,19.76
2017-08-02T01:24:46.098Z,19.76
2017-08-02T01:25:12.283Z,19.77
2017-08-02T01:25:38.478Z,19.73
2017-08-02T01:26:04.636Z,19.66
2017-08-02T01:26:30.743Z,19.71
2017-08-02T01:26:56.878Z,19.71
2017-08-02T01:27:23.012Z,19.74
2017-08-02T01:27:49.170Z,19.76
2017-08-02T01:28:15.303Z,19.79
2017-08-02T01:28:41.465Z,19.69
2017-08-02T01:29:07.596Z,19.74
2017-08-02T01:29:33.728Z,19.7
2017-08-02T01:29:59.888Z,19.69
2017-08-02T01:30:26.073Z,19.7
2017-08-02T01:30:52.260Z,19.7
2017-08-02T01:31:18.423Z,19.64
2017-08-02T01:31:44.558Z,19.67
2017-08-02T01:32:10.749Z,19.7
2017-08-02T01:32:36.935Z,19.69
2017-08-02T01:33:03.091Z,19.77
2017-08-02T01:33:29.250Z,19.66
2017-08-02T01:33:55.383Z,19.76
2017-08-02T01:34:21.540Z,19.79
2017-08-02T01:34:47.674Z,19.81
2017-08-02T01:35:13.833Z,19.69
2017-08-02T01:35:39.970Z,19.71
2017-08-02T01:36:06.104Z,19.77
2017-08-02T01:36:32.236Z,19.71
2017-08-02T01:36:58.343Z,19.67
2017-08-02T01:37:24.556Z,19.67
2017-08-02T01:37:50.689Z,19.7
2017-08-02T01:38:16.795Z,19.77
2017-08-02T01:38:42.955Z,19.77
2017-08-02T01:39:09.090Z,19.77
2017-08-02T01:39:35.249Z,19.84
2017-08-02T01:40:01.435Z,19.96
2017-08-02T01:40:27.541Z,19.99
2017-08-02T01:40:53.726Z,20
2017-08-02T01:41:19.860Z,20.04
2017-08-02T01:41:45.992Z,20.02
2017-08-02T01:42:12.096Z,20.07
2017-08-02T01:42:38.229Z,20.06
2017-08-02T01:43:04.334Z,20.07
2017-08-02T01:43:30.464Z,20.1
2017-08-02T01:43:56.624Z,20.14
2017-08-02T01:44:22.785Z,20.24
2017-08-02T01:44:48.948Z,20.13
2017-08-02T01:45:15.106Z,20.24
2017-08-02T01:45:41.237Z,20.22
2017-08-02T01:46:07.342Z,20.26
2017-08-02T01:46:33.473Z,20.28
2017-08-02T01:46:59.633Z,20.28
2017-08-02T01:47:25.767Z,20.32
2017-08-02T01:47:51.929Z,20.31
2017-08-02T01:48:18.093Z,20.31
2017-08-02T01:48:44.226Z,20.32
2017-08-02T01:49:10.489Z,20.26
2017-08-02T01:49:36.649Z,20.26
2017-08-02T01:50:02.810Z,20.41
2017-08-02T01:50:28.968Z,20.37
2017-08-02T01:50:55.102Z,20.4
2017-08-02T01:51:21.208Z,20.43
2017-08-02T01:51:47.347Z,20.39
2017-08-02T01:52:13.504Z,20.4
2017-08-02T01:52:39.637Z,20.28
2017-08-02T01:53:05.741Z,20.39
2017-08-02T01:53:31.932Z,20.39
2017-08-02T01:53:58.065Z,20.44
2017-08-02T01:54:24.227Z,20.48
2017-08-02T01:54:50.365Z,20.5
2017-08-02T01:55:16.626Z,20.36
2017-08-02T01:55:42.789Z,20.4
2017-08-02T01:56:08.924Z,20.39
2017-08-02T01:56:35.058Z,20.43
2017-08-02T01:57:01.219Z,20.34
2017-08-02T01:57:27.378Z,20.31
2017-08-02T01:57:53.540Z,20.48
2017-08-02T01:58:19.700Z,20.4
2017-08-02T01:58:45.860Z,20.41
2017-08-02T01:59:11.994Z,20.47
2017-08-02T01:59:38.155Z,20.4
2017-08-02T02:00:04.288Z,20.43
2017-08-02T02:00:30.449Z,20.48
2017-08-02T02:00:56.584Z,20.44
2017-08-02T02:01:22.745Z,20.48
2017-08-02T02:01:48.903Z,20.52
2017-08-02T02:02:15.066Z,20.48
2017-08-02T02:02:41.227Z,20.4
2017-08-02T02:03:07.386Z,20.47
2017-08-02T02:03:33.547Z,20.44
2017-08-02T02:03:59.706Z,20.5
2017-08-02T02:04:25.839Z,20.43
2017-08-02T02:04:52.000Z,20.47
2017-08-02T02:05:18.133Z,20.43
2017-08-02T02:05:44.241Z,20.62
2017-08-02T02:06:10.432Z,20.62
2017-08-02T02:06:36.565Z,20.62
2017-08-02T02:07:02.725Z,20.62
2017-08-02T02:07:28.859Z,20.63
2017-08-02T02:07:54.995Z,20.62
2017-08-02T02:08:21.131Z,20.56
2017-08-02T02:08:47.238Z,20.56
2017-08-02T02:09:13.425Z,20.56
2017-08-02T02:09:39.560Z,20.62
2017-08-02T02:10:05.721Z,20.62
2017-08-02T02:10:31.883Z,20.62
2017-08-02T02:10:58.016Z,20.58
2017-08-02T02:11:24.206Z,20.58
2017-08-02T02:11:50.360Z,20.43
2017-08-02T02:12:16.466Z,20.48
2017-08-02T02:12:42.597Z,20.44
2017-08-02T02:13:08.787Z,20.4
2017-08-02T02:13:34.949Z,20.41
2017-08-02T02:14:01.109Z,20.44
2017-08-02T02:14:27.216Z,20.37
2017-08-02T02:14:53.375Z,20.25
2017-08-02T02:15:19.511Z,20.29
2017-08-02T02:15:45.671Z,20.41
2017-08-02T02:16:11.834Z,20.39
2017-08-02T02:16:37.994Z,20.43
2017-08-02T02:17:04.128Z,20.43
2017-08-02T02:17:30.290Z,20.44
2017-08-02T02:17:56.449Z,20.44
2017-08-02T02:18:22.554Z,20.5
2017-08-02T02:18:48.715Z,20.47
2017-08-02T02:19:14.933Z,20.32
2017-08-02T02:19:41.039Z,20.32
2017-08-02T02:20:07.201Z,20.31
2017-08-02T02:20:33.337Z,20.28
2017-08-02T02:20:59.500Z,20.32
2017-08-02T02:21:25.633Z,20.28
2017-08-02T02:21:51.768Z,20.32
2017-08-02T02:22:17.957Z,20.29
2017-08-02T02:22:44.064Z,20.26
2017-08-02T02:23:10.197Z,20.19
2017-08-02T02:23:36.356Z,20.25
2017-08-02T02:24:02.542Z,20.24
2017-08-02T02:24:28.730Z,20.25
2017-08-02T02:24:54.917Z,20.24
2017-08-02T02:25:21.103Z,20.24
2017-08-02T02:25:47.261Z,20.21
2017-08-02T02:26:13.422Z,20.24
2017-08-02T02:26:39.582Z,20.26
2017-08-02T02:27:05.768Z,20.29
2017-08-02T02:27:31.986Z,20.29
2017-08-02T02:27:58.210Z,20.24
2017-08-02T02:28:24.309Z,20.21
2017-08-02T02:28:50.416Z,20.19
2017-08-02T02:29:16.577Z,20.25
2017-08-02T02:29:42.764Z,20.29
2017-08-02T02:30:08.922Z,20.28
2017-08-02T02:30:35.054Z,20.22
2017-08-02T02:31:01.243Z,20.19
2017-08-02T02:31:27.434Z,20.22
2017-08-02T02:31:53.566Z,20.21
2017-08-02T02:32:19.756Z,20.28
2017-08-02T02:32:45.888Z,20.19
2017-08-02T02:33:12.077Z,20.19
2017-08-02T02:33:38.265Z,20.24
2017-08-02T02:34:04.425Z,20.22
2017-08-02T02:34:30.558Z,20.22
2017-08-02T02:34:56.662Z,20.28
2017-08-02T02:35:22.878Z,20.25
2017-08-02T02:35:49.065Z,20.26
2017-08-02T02:36:15.225Z,20.22
2017-08-02T02:36:41.414Z,20.19
2017-08-02T02:37:07.575Z,20.21
2017-08-02T02:37:33.737Z,20.21
2017-08-02T02:37:59.925Z,20.19
2017-08-02T02:38:26.057Z,20.21
2017-08-02T02:38:52.246Z,20.22
2017-08-02T02:39:18.408Z,20.22
2017-08-02T02:39:44.571Z,20.26
2017-08-02T02:40:10.790Z,20.26
2017-08-02T02:40:36.924Z,20.24
2017-08-02T02:41:03.056Z,20.19
2017-08-02T02:41:29.191Z,20.25
2017-08-02T02:41:55.345Z,20.14
2017-08-02T02:42:21.511Z,20.11
2017-08-02T02:42:47.689Z,20.04
2017-08-02T02:43:13.877Z,19.99
2017-08-02T02:43:39.988Z,20.02
2017-08-02T02:44:06.117Z,20.03
2017-08-02T02:44:32.250Z,20.02
2017-08-02T02:44:58.412Z,19.91
2017-08-02T02:45:24.631Z,19.95
2017-08-02T02:45:50.776Z,20.03
2017-08-02T02:46:16.934Z,20.02
2017-08-02T02:46:43.097Z,20
2017-08-02T02:47:09.251Z,20.09
2017-08-02T02:47:35.334Z,20.1
2017-08-02T02:48:02.900Z,20.09
2017-08-02T02:48:29.025Z,20.06
2017-08-02T02:48:55.180Z,20.16
2017-08-02T02:49:21.320Z,20.1
2017-08-02T02:49:47.470Z,20.1
2017-08-02T02:50:13.601Z,20.16
2017-08-02T02:50:39.763Z,20.11
2017-08-02T02:51:05.960Z,20.09
2017-08-02T02:51:32.083Z,20.06
2017-08-02T02:51:58.240Z,20.13
2017-08-02T02:52:24.423Z,20.06
2017-08-02T02:52:50.562Z,20.06
2017-08-02T02:53:16.692Z,20.02
2017-08-02T02:53:42.846Z,20.06
2017-08-02T02:54:08.961Z,20.02
2017-08-02T02:54:35.092Z,19.94
2017-08-02T02:55:01.274Z,20.04
2017-08-02T02:55:27.418Z,20.02
2017-08-02T02:55:53.542Z,20
2017-08-02T02:56:19.735Z,20.06
2017-08-02T02:56:45.879Z,20
2017-08-02T02:57:12.011Z,20.02
2017-08-02T02:57:38.170Z,20.02
2017-08-02T02:58:04.322Z,20.07
2017-08-02T02:58:30.428Z,20.11
2017-08-02T02:58:56.543Z,20.04
2017-08-02T02:59:22.663Z,20.06
2017-08-02T02:59:48.798Z,20.11
2017-08-02T03:00:14.967Z,20.19
2017-08-02T03:00:41.104Z,20.14
2017-08-02T03:01:07.268Z,20.09
2017-08-02T03:01:33.419Z,20.09
2017-08-02T03:01:59.509Z,20.03
2017-08-02T03:02:25.639Z,20.13
2017-08-02T03:02:51.782Z,20.03
2017-08-02T03:03:17.999Z,20
2017-08-02T03:03:44.120Z,19.96
2017-08-02T03:04:10.259Z,19.92
2017-08-02T03:04:36.422Z,19.91
2017-08-02T03:05:02.540Z,19.89
2017-08-02T03:05:28.650Z,20
2017-08-02T03:05:54.811Z,19.94
2017-08-02T03:06:20.934Z,19.88
2017-08-02T03:06:47.074Z,19.94
2017-08-02T03:07:13.200Z,19.92
2017-08-02T03:07:39.308Z,20
2017-08-02T03:08:05.476Z,19.94
2017-08-02T03:08:31.595Z,19.96
2017-08-02T03:08:57.733Z,20.04
2017-08-02T03:09:23.893Z,19.92
2017-08-02T03:09:50.021Z,20.02
2017-08-02T03:10:16.159Z,19.92
2017-08-02T03:10:42.314Z,19.91
2017-08-02T03:11:08.446Z,19.86
2017-08-02T03:11:34.530Z,19.91
2017-08-02T03:12:00.654Z,19.85
2017-08-02T03:12:26.843Z,19.88
2017-08-02T03:12:53.013Z,19.91
2017-08-02T03:13:19.132Z,19.94
2017-08-02T03:13:45.303Z,19.92
2017-08-02T03:14:11.438Z,20
2017-08-02T03:14:37.622Z,20.03
2017-08-02T03:15:03.733Z,19.94
2017-08-02T03:15:29.909Z,19.94
2017-08-02T03:15:56.098Z,19.96
2017-08-02T03:16:22.217Z,20.02
2017-08-02T03:16:48.338Z,19.88
2017-08-02T03:17:14.496Z,19.84
2017-08-02T03:17:40.643Z,19.88
2017-08-02T03:18:06.755Z,19.82
2017-08-02T03:18:32.893Z,19.77
2017-08-02T03:18:58.987Z,19.88
2017-08-02T03:19:25.077Z,19.96
2017-08-02T03:19:51.263Z,19.91
2017-08-02T03:20:17.388Z,19.92
2017-08-02T03:20:43.528Z,19.95
2017-08-02T03:21:09.657Z,19.89
2017-08-02T03:21:35.819Z,19.96
2017-08-02T03:22:01.984Z,19.99
2017-08-02T03:22:28.130Z,19.96
2017-08-02T03:22:54.295Z,19.94
2017-08-02T03:23:20.436Z,20.03
2017-08-02T03:23:46.582Z,20
2017-08-02T03:24:12.769Z,19.95
2017-08-02T03:24:38.964Z,20.03
2017-08-02T03:25:05.092Z,19.96
2017-08-02T03:25:31.232Z,20.02
2017-08-02T03:25:57.354Z,20
2017-08-02T03:26:23.543Z,19.99
2017-08-02T03:26:49.659Z,19.95
2017-08-02T03:27:15.780Z,19.96
2017-08-02T03:27:41.969Z,19.94
2017-08-02T03:28:08.167Z,19.94
2017-08-02T03:28:34.309Z,19.79
2017-08-02T03:29:00.442Z,19.85
2017-08-02T03:29:26.619Z,19.86
2017-08-02T03:29:52.758Z,19.84
2017-08-02T03:30:18.923Z,19.79
2017-08-02T03:30:45.115Z,19.79
2017-08-02T03:31:11.305Z,19.7
2017-08-02T03:31:37.476Z,19.64
2017-08-02T03:32:03.566Z,19.7
2017-08-02T03:32:29.751Z,19.7
2017-08-02T03:32:55.870Z,19.63
2017-08-02T03:33:22.021Z,19.66
2017-08-02T03:33:48.218Z,19.64
2017-08-02T03:34:14.343Z,19.64
2017-08-02T03:34:40.482Z,19.64
2017-08-02T03:35:06.659Z,19.62
2017-08-02T03:35:32.846Z,19.67
2017-08-02T03:35:59.026Z,19.64
2017-08-02T03:36:25.168Z,19.62
2017-08-02T03:36:51.284Z,19.58
2017-08-02T03:37:17.413Z,19.59
2017-08-02T03:37:43.515Z,19.62
2017-08-02T03:38:09.651Z,19.59
2017-08-02T03:38:35.803Z,19.59
2017-08-02T03:39:01.942Z,19.56
2017-08-02T03:39:28.082Z,19.64
2017-08-02T03:39:54.255Z,19.64
2017-08-02T03:40:20.417Z,19.64
2017-08-02T03:40:46.583Z,19.69
2017-08-02T03:41:12.703Z,19.71
2017-08-02T03:41:38.799Z,19.69
2017-08-02T03:42:04.934Z,19.69
2017-08-02T03:42:31.091Z,19.67
2017-08-02T03:42:57.256Z,19.66
2017-08-02T03:43:23.382Z,19.64
2017-08-02T03:43:49.538Z,19.62
2017-08-02T03:44:15.652Z,19.52
2017-08-02T03:44:41.775Z,19.62
2017-08-02T03:45:07.906Z,19.56
2017-08-02T03:45:34.022Z,19.56
2017-08-02T03:46:00.183Z,19.56
2017-08-02T03:46:26.346Z,19.66
2017-08-02T03:46:52.441Z,19.66
2017-08-02T03:47:18.543Z,19.69
2017-08-02T03:47:44.659Z,19.64
2017-08-02T03:48:10.756Z,19.56
2017-08-02T03:48:36.943Z,19.62
2017-08-02T03:49:03.034Z,19.59
2017-08-02T03:49:29.194Z,19.58
2017-08-02T03:49:55.329Z,19.64
2017-08-02T03:50:21.452Z,19.56
2017-08-02T03:50:47.546Z,19.56
2017-08-02T03:51:13.730Z,19.55
2017-08-02T03:51:39.884Z,19.63
2017-08-02T03:52:06.041Z,19.59
2017-08-02T03:52:32.147Z,19.52
2017-08-02T03:52:58.261Z,19.62
2017-08-02T03:53:24.421Z,19.63
2017-08-02T03:53:50.596Z,19.63
2017-08-02T03:54:16.711Z,19.67
2017-08-02T03:54:42.815Z,19.58
2017-08-02T03:55:08.970Z,19.67
2017-08-02T03:55:35.082Z,19.64
2017-08-02T03:56:01.211Z,19.71
2017-08-02T03:56:27.371Z,19.71
2017-08-02T03:56:53.486Z,19.66
2017-08-02T03:57:19.628Z,19.63
2017-08-02T03:57:45.762Z,19.67
2017-08-02T03:58:11.901Z,19.69
2017-08-02T03:58:38.034Z,19.67
2017-08-02T03:59:04.120Z,19.7
2017-08-02T03:59:30.249Z,19.62
2017-08-02T03:59:56.408Z,19.67
2017-08-02T04:00:22.520Z,19.69
2017-08-02T04:00:48.641Z,19.67
2017-08-02T04:01:14.775Z,19.64
2017-08-02T04:01:40.918Z,19.59
2017-08-02T04:02:07.044Z,19.64
2017-08-02T04:02:33.228Z,19.63
2017-08-02T04:02:59.373Z,19.63
2017-08-02T04:03:25.485Z,19.69
2017-08-02T04:03:51.596Z,19.58
2017-08-02T04:04:17.693Z,19.67
2017-08-02T04:04:43.856Z,19.7
2017-08-02T04:05:10.013Z,19.71
2017-08-02T04:05:36.169Z,19.67
2017-08-02T04:06:02.304Z,19.7
2017-08-02T04:06:28.434Z,19.7
2017-08-02T04:06:54.566Z,19.67
2017-08-02T04:07:20.702Z,19.71
2017-08-02T04:07:46.878Z,19.73
2017-08-02T04:08:13.012Z,19.67
2017-08-02T04:08:39.179Z,19.81
2017-08-02T04:09:05.346Z,19.81
2017-08-02T04:09:31.522Z,19.81
2017-08-02T04:09:57.652Z,19.82
2017-08-02T04:10:23.811Z,19.81
2017-08-02T04:10:49.945Z,19.85
2017-08-02T04:11:16.121Z,19.84
2017-08-02T04:11:42.257Z,19.67
2017-08-02T04:12:08.422Z,19.77
2017-08-02T04:12:34.542Z,19.82
2017-08-02T04:13:00.673Z,19.79
2017-08-02T04:13:26.795Z,19.67
2017-08-02T04:13:52.934Z,19.82
2017-08-02T04:14:19.123Z,19.77
2017-08-02T04:14:45.222Z,19.71
2017-08-02T04:15:11.380Z,19.7
2017-08-02T04:15:37.521Z,19.7
2017-08-02T04:16:03.673Z,19.7
2017-08-02T04:16:29.802Z,19.64
2017-08-02T04:16:55.921Z,19.69
2017-08-02T04:17:22.087Z,19.67
2017-08-02T04:17:48.249Z,19.67
2017-08-02T04:18:14.402Z,19.69
2017-08-02T04:18:40.539Z,19.64
2017-08-02T04:19:06.644Z,19.69
2017-08-02T04:19:32.825Z,19.7
2017-08-02T04:19:58.966Z,19.67
2017-08-02T04:20:25.117Z,19.7
2017-08-02T04:20:51.256Z,19.69
2017-08-02T04:21:17.364Z,19.71
2017-08-02T04:21:43.486Z,19.69
2017-08-02T04:22:09.626Z,19.69
2017-08-02T04:22:35.787Z,19.76
2017-08-02T04:23:01.938Z,19.76
2017-08-02T04:23:28.072Z,19.69
2017-08-02T04:23:54.176Z,19.82
2017-08-02T04:24:20.337Z,19.84
2017-08-02T04:24:46.469Z,19.77
2017-08-02T04:25:12.568Z,19.74
2017-08-02T04:25:38.702Z,19.95
2017-08-02T04:26:04.869Z,19.92
2017-08-02T04:26:31.013Z,19.92
2017-08-02T04:26:57.201Z,19.94
2017-08-02T04:27:23.373Z,19.95
2017-08-02T04:27:49.508Z,19.94
2017-08-02T04:28:15.669Z,19.92
2017-08-02T04:28:41.869Z,19.91
2017-08-02T04:29:08.032Z,19.99
2017-08-02T04:29:34.162Z,19.94
2017-08-02T04:30:00.262Z,20.02
2017-08-02T04:30:26.402Z,20.04
2017-08-02T04:30:52.555Z,20.06
2017-08-02T04:31:18.689Z,20.11
2017-08-02T04:31:44.808Z,20.07
2017-08-02T04:32:10.954Z,20.06
2017-08-02T04:32:37.069Z,20.1
2017-08-02T04:33:03.228Z,20.16
2017-08-02T04:33:29.355Z,20.11
2017-08-02T04:33:55.445Z,20.1
2017-08-02T04:34:21.548Z,20.09
2017-08-02T04:34:47.709Z,20.09
2017-08-02T04:35:13.822Z,20.13
2017-08-02T04:35:39.972Z,20.19
2017-08-02T04:36:06.133Z,20.11
2017-08-02T04:36:32.223Z,20.1
2017-08-02T04:36:58.320Z,20.11
2017-08-02T04:37:24.415Z,20.16
2017-08-02T04:37:50.575Z,20.11
2017-08-02T04:38:16.736Z,20.06
2017-08-02T04:38:42.848Z,20.11
2017-08-02T04:39:09.024Z,20.11
2017-08-02T04:39:35.158Z,20.11
2017-08-02T04:40:01.276Z,20.1
2017-08-02T04:40:27.397Z,20.09
2017-08-02T04:40:53.529Z,20.11
2017-08-02T04:41:19.696Z,20.11
2017-08-02T04:41:45.808Z,20
2017-08-02T04:42:11.997Z,20
2017-08-02T04:42:38.095Z,19.88
2017-08-02T04:43:04.251Z,20.02
2017-08-02T04:43:30.398Z,19.88
2017-08-02T04:43:56.543Z,19.81
2017-08-02T04:44:22.703Z,19.77
2017-08-02T04:44:48.850Z,19.92
2017-08-02T04:45:14.990Z,19.95
2017-08-02T04:45:41.181Z,19.96
2017-08-02T04:46:07.309Z,19.95
2017-08-02T04:46:33.445Z,19.92
2017-08-02T04:46:59.550Z,19.84
2017-08-02T04:47:25.680Z,19.79
2017-08-02T04:47:51.792Z,19.91
2017-08-02T04:48:17.919Z,19.94
2017-08-02T04:48:44.077Z,19.88
2017-08-02T04:49:10.190Z,19.95
2017-08-02T04:49:36.390Z,20.03
2017-08-02T04:50:02.550Z,20.03
2017-08-02T04:50:28.665Z,19.95
2017-08-02T04:50:54.783Z,19.92
2017-08-02T04:51:20.918Z,19.81
2017-08-02T04:51:47.041Z,19.82
2017-08-02T04:52:13.178Z,19.88
2017-08-02T04:52:39.342Z,19.85
2017-08-02T04:53:05.494Z,19.81
2017-08-02T04:53:31.585Z,19.79
2017-08-02T04:53:57.714Z,19.76
2017-08-02T04:54:23.858Z,19.69
2017-08-02T04:54:49.991Z,19.69
2017-08-02T04:55:16.173Z,19.79
2017-08-02T04:55:42.339Z,19.76
2017-08-02T04:56:08.527Z,19.76
2017-08-02T04:56:34.680Z,19.79
2017-08-02T04:57:00.845Z,19.82
2017-08-02T04:57:27.000Z,19.82
2017-08-02T04:57:53.099Z,19.84
2017-08-02T04:58:19.214Z,19.84
2017-08-02T04:58:45.342Z,19.81
2017-08-02T04:59:11.500Z,19.77
2017-08-02T04:59:37.591Z,19.69
2017-08-02T05:00:03.739Z,19.7
2017-08-02T05:00:29.853Z,19.71
2017-08-02T05:00:55.985Z,19.67
2017-08-02T05:01:22.142Z,19.59
2017-08-02T05:01:48.257Z,19.59
2017-08-02T05:02:14.408Z,19.62
2017-08-02T05:02:40.540Z,19.66
2017-08-02T05:03:06.702Z,19.62
2017-08-02T05:03:32.853Z,19.63
2017-08-02T05:03:59.011Z,19.69
2017-08-02T05:04:25.128Z,19.71
2017-08-02T05:04:51.250Z,19.7
2017-08-02T05:05:17.425Z,19.66
2017-08-02T05:05:43.581Z,19.67
2017-08-02T05:06:09.798Z,19.64
2017-08-02T05:06:35.887Z,19.69
2017-08-02T05:07:02.060Z,19.67
2017-08-02T05:07:28.326Z,19.67
2017-08-02T05:07:54.521Z,19.74
2017-08-02T05:08:20.643Z,19.64
2017-08-02T05:08:46.748Z,19.64
2017-08-02T05:09:12.870Z,19.64
2017-08-02T05:09:39.011Z,19.69
2017-08-02T05:10:05.120Z,19.66
2017-08-02T05:10:31.299Z,19.63
2017-08-02T05:10:57.450Z,19.67
2017-08-02T05:11:23.642Z,19.67
2017-08-02T05:11:49.763Z,19.7
2017-08-02T05:12:15.897Z,19.7
2017-08-02T05:12:42.016Z,19.7
2017-08-02T05:13:08.133Z,19.62
2017-08-02T05:13:34.291Z,19.63
2017-08-02T05:14:00.465Z,19.59
2017-08-02T05:14:26.628Z,19.56
2017-08-02T05:14:52.764Z,19.64
2017-08-02T05:15:18.917Z,19.59
2017-08-02T05:15:45.032Z,19.52
2017-08-02T05:16:11.160Z,19.51
2017-08-02T05:16:37.278Z,19.48
2017-08-02T05:17:03.386Z,19.54
2017-08-02T05:17:29.533Z,19.52
2017-08-02T05:17:55.623Z,19.47
2017-08-02T05:18:21.806Z,19.52
2017-08-02T05:18:47.931Z,19.45
2017-08-02T05:19:14.046Z,19.52
2017-08-02T05:19:40.175Z,19.54
2017-08-02T05:20:06.365Z,19.48
2017-08-02T05:20:32.477Z,19.52
2017-08-02T05:20:58.678Z,19.59
2017-08-02T05:21:24.838Z,19.56
2017-08-02T05:21:51.004Z,19.54
2017-08-02T05:22:17.160Z,19.63
2017-08-02T05:22:43.252Z,19.58
2017-08-02T05:23:09.410Z,19.67
2017-08-02T05:23:35.601Z,19.74
2017-08-02T05:24:01.765Z,19.64
2017-08-02T05:24:27.885Z,19.71
2017-08-02T05:24:53.992Z,19.67
2017-08-02T05:25:20.157Z,19.73
2017-08-02T05:25:46.326Z,19.79
2017-08-02T05:26:12.485Z,19.84
2017-08-02T05:26:38.686Z,19.81
2017-08-02T05:27:04.850Z,19.85
2017-08-02T05:27:30.975Z,19.82
2017-08-02T05:27:57.156Z,19.84
2017-08-02T05:28:23.318Z,19.85
2017-08-02T05:28:49.514Z,19.77
2017-08-02T05:29:15.633Z,19.92
2017-08-02T05:29:41.741Z,20
2017-08-02T05:30:07.858Z,20.02
2017-08-02T05:30:33.976Z,20.09
2017-08-02T05:31:00.082Z,20.03
2017-08-02T05:31:26.234Z,20.11
2017-08-02T05:31:52.346Z,20.03
2017-08-02T05:32:18.533Z,20.1
2017-08-02T05:32:44.714Z,20.06
2017-08-02T05:33:10.854Z,20.18
2017-08-02T05:33:36.957Z,20.22
2017-08-02T05:34:03.117Z,20.24
2017-08-02T05:34:29.255Z,20.28
2017-08-02T05:34:55.381Z,20.28
2017-08-02T05:35:21.543Z,20.21
2017-08-02T05:35:47.683Z,20.21
2017-08-02T05:36:13.803Z,20.25
2017-08-02T05:36:39.966Z,20.24
2017-08-02T05:37:06.084Z,20.26
2017-08-02T05:37:32.195Z,20.34
2017-08-02T05:37:58.332Z,20.32